首页
METAR-TAF:

METAR-TAF

机场 :

Mission Field

利文斯顿, 蒙大拿州, 美国

纬度: 45-41-58N, 经度: 110-26-54W, 海拔: 1419米

当前天气观测

该预报发布于25分钟前的09:53 UTC
风速6节,风向西转西南
温度 2°C
湿度 93%
气压 1020 hPa
能見度: 16.1公里
天空无云

METAR: KLVM 190953Z AUTO 25006KT 10SM CLR 02/01 A3013 RMK AO2 SLP204 T00220011

时间: 04:18 (10:18 UTC)

预报

该预报发布于3小时和9分钟前的07:09 UTC
预报有效从19日的 07点(UTC)到 20日的 06点(UTC)
风速6节,风向多变
能見度: 10公里
多云层高于1500英尺
从 19日的 0900点(UTC)
风速6节,风向多变
能見度: 10公里
少量云层高于300英尺
散云层高于1500英尺
附近有雾
从 19日的 1500点(UTC)
风速6节,风向多变
能見度: 10公里
天空无云
从 19日的 2000点(UTC)
风速6节,风向多变
能見度: 10公里
少量云层高于7000英尺
散云层高于20000英尺
从 20日的 0200点(UTC)
风速6节,风向多变
能見度: 10公里
天空无云

TAF: KLVM 190709Z 1907/2006 VRB06KT P6SM BKN015 FM190900 VRB06KT P6SM VCFG FEW003 SCT015 FM191500 VRB06KT P6SM SKC FM192000 VRB06KT P6SM FEW070 SCT200 FM200200 VRB06KT P6SM SKC

超过4000个机场的气象观测和天气预报(METAR&TAF报告)。

可查询的气象台以黄色和红色小点在地图上表示。

将鼠标移到小点上方,可查看气象台名称。

然后点击查看天气观测和预报。

如需切换地图:点击带黑十字的绿色按钮放大地图;点击带横线的绿色按钮缩小地图;或者点击绿色箭头查看邻近地区的地图。


METAR-TAF: